sensor_id;sensor_type;location;lat;lon;timestamp;pressure;altitude;pressure_sealevel;temperature;humidity
76374;BME280;65197;50.164;8.012;2022-12-08T00:00:44;95012.22;;;-0.18;100.00
76374;BME280;65197;50.164;8.012;2022-12-08T00:03:09;95002.25;;;-0.24;100.00
76374;BME280;65197;50.164;8.012;2022-12-08T00:05:35;95010.53;;;-0.19;100.00
76374;BME280;65197;50.164;8.012;2022-12-08T00:08:19;95018.84;;;-0.14;100.00
76374;BME280;65197;50.164;8.012;2022-12-08T00:11:03;95002.19;;;-0.19;100.00
76374;BME280;65197;50.164;8.012;2022-12-08T00:13:28;95010.59;;;-0.22;100.00
76374;BME280;65197;50.164;8.012;2022-12-08T00:15:59;95010.56;;;-0.20;100.00
76374;BME280;65197;50.164;8.012;2022-12-08T00:18:25;95009.78;;;-0.24;100.00
76374;BME280;65197;50.164;8.012;2022-12-08T00:20:54;94998.00;;;-0.19;100.00
76374;BME280;65197;50.164;8.012;2022-12-08T00:23:20;94996.31;;;-0.17;100.00
76374;BME280;65197;50.164;8.012;2022-12-08T00:25:45;95008.00;;;-0.16;100.00
76374;BME280;65197;50.164;8.012;2022-12-08T00:28:11;95002.94;;;-0.14;100.00
76374;BME280;65197;50.164;8.012;2022-12-08T00:30:39;94991.34;;;-0.20;100.00
76374;BME280;65197;50.164;8.012;2022-12-08T00:33:04;95001.19;;;-0.08;100.00
76374;BME280;65197;50.164;8.012;2022-12-08T00:35:29;95002.94;;;-0.14;100.00
76374;BME280;65197;50.164;8.012;2022-12-08T00:37:55;94996.28;;;-0.14;100.00
76374;BME280;65197;50.164;8.012;2022-12-08T00:40:20;95002.84;;;-0.07;100.00
76374;BME280;65197;50.164;8.012;2022-12-08T00:42:46;94997.81;;;-0.07;100.00
76374;BME280;65197;50.164;8.012;2022-12-08T00:45:11;94996.13;;;-0.06;100.00
76374;BME280;65197;50.164;8.012;2022-12-08T00:47:36;94987.91;;;-0.14;100.00
76374;BME280;65197;50.164;8.012;2022-12-08T00:50:02;94979.56;;;-0.15;100.00
76374;BME280;65197;50.164;8.012;2022-12-08T00:52:28;94999.53;;;-0.09;100.00
76374;BME280;65197;50.164;8.012;2022-12-08T00:54:53;94981.13;;;-0.08;100.00
76374;BME280;65197;50.164;8.012;2022-12-08T00:57:18;94985.41;;;-0.13;100.00
76374;BME280;65197;50.164;8.012;2022-12-08T00:59:44;94977.88;;;-0.14;100.00
76374;BME280;65197;50.164;8.012;2022-12-08T01:02:09;94976.28;;;-0.17;100.00
76374;BME280;65197;50.164;8.012;2022-12-08T01:04:35;94986.19;;;-0.11;100.00
76374;BME280;65197;50.164;8.012;2022-12-08T01:07:00;94987.84;;;-0.10;100.00
76374;BME280;65197;50.164;8.012;2022-12-08T01:09:28;94987.81;;;-0.07;100.00
76374;BME280;65197;50.164;8.012;2022-12-08T01:11:54;94984.44;;;-0.06;99.95
76374;BME280;65197;50.164;8.012;2022-12-08T01:14:19;94978.59;;;-0.06;99.86
76374;BME280;65197;50.164;8.012;2022-12-08T01:16:45;94982.81;;;-0.08;100.00
76374;BME280;65197;50.164;8.012;2022-12-08T01:19:12;94986.19;;;-0.11;100.00
76374;BME280;65197;50.164;8.012;2022-12-08T01:21:38;94967.94;;;-0.19;99.97
76374;BME280;65197;50.164;8.012;2022-12-08T01:24:04;94985.47;;;-0.17;100.00
76374;BME280;65197;50.164;8.012;2022-12-08T01:26:30;94972.94;;;-0.19;100.00
76374;BME280;65197;50.164;8.012;2022-12-08T01:28:55;94974.63;;;-0.18;100.00
76374;BME280;65197;50.164;8.012;2022-12-08T01:31:21;94978.84;;;-0.21;100.00
76374;BME280;65197;50.164;8.012;2022-12-08T01:33:47;94968.06;;;-0.28;100.00
76374;BME280;65197;50.164;8.012;2022-12-08T01:38:47;94964.91;;;-0.39;100.00
76374;BME280;65197;50.164;8.012;2022-12-08T01:41:15;94955.88;;;-0.48;100.00
76374;BME280;65197;50.164;8.012;2022-12-08T01:46:24;94974.84;;;-0.33;100.00
76374;BME280;65197;50.164;8.012;2022-12-08T01:48:53;94965.72;;;-0.36;100.00
76374;BME280;65197;50.164;8.012;2022-12-08T01:51:21;94969.81;;;-0.33;100.00
76374;BME280;65197;50.164;8.012;2022-12-08T01:53:47;94960.84;;;-0.46;100.00
76374;BME280;65197;50.164;8.012;2022-12-08T01:56:32;94967.53;;;-0.45;100.00
76374;BME280;65197;50.164;8.012;2022-12-08T01:58:59;94963.16;;;-0.34;100.00
76374;BME280;65197;50.164;8.012;2022-12-08T02:01:25;94959.84;;;-0.35;100.00
76374;BME280;65197;50.164;8.012;2022-12-08T02:03:58;94949.84;;;-0.36;100.00
76374;BME280;65197;50.164;8.012;2022-12-08T02:06:25;94947.47;;;-0.44;100.00
76374;BME280;65197;50.164;8.012;2022-12-08T02:08:52;94954.91;;;-0.39;100.00
76374;BME280;65197;50.164;8.012;2022-12-08T02:11:19;94948.28;;;-0.43;100.00
76374;BME280;65197;50.164;8.012;2022-12-08T02:13:46;94950.00;;;-0.45;100.00
76374;BME280;65197;50.164;8.012;2022-12-08T02:16:30;94939.22;;;-0.52;100.00
76374;BME280;65197;50.164;8.012;2022-12-08T02:19:28;94945.03;;;-0.48;100.00
76374;BME280;65197;50.164;8.012;2022-12-08T02:22:12;94936.66;;;-0.47;100.00
76374;BME280;65197;50.164;8.012;2022-12-08T02:24:57;94939.13;;;-0.44;100.00
76374;BME280;65197;50.164;8.012;2022-12-08T02:30:21;94930.84;;;-0.51;100.00
76374;BME280;65197;50.164;8.012;2022-12-08T02:43:44;94923.63;;;-0.69;100.00
76374;BME280;65197;50.164;8.012;2022-12-08T02:46:16;94908.72;;;-0.77;100.00
76374;BME280;65197;50.164;8.012;2022-12-08T02:48:43;94915.28;;;-0.70;100.00
76374;BME280;65197;50.164;8.012;2022-12-08T02:51:09;94913.53;;;-0.65;100.00
76374;BME280;65197;50.164;8.012;2022-12-08T02:53:35;94905.22;;;-0.67;100.00
76374;BME280;65197;50.164;8.012;2022-12-08T02:56:03;94911.94;;;-0.69;100.00
76374;BME280;65197;50.164;8.012;2022-12-08T03:07:27;94893.75;;;-0.80;100.00
76374;BME280;65197;50.164;8.012;2022-12-08T03:10:22;94897.91;;;-0.81;100.00
76374;BME280;65197;50.164;8.012;2022-12-08T03:12:56;94883.81;;;-0.86;100.00
76374;BME280;65197;50.164;8.012;2022-12-08T03:15:22;94880.38;;;-0.79;100.00
76374;BME280;65197;50.164;8.012;2022-12-08T03:17:51;94891.31;;;-0.85;100.00
76374;BME280;65197;50.164;8.012;2022-12-08T03:20:21;94895.44;;;-0.84;100.00
76374;BME280;65197;50.164;8.012;2022-12-08T03:22:49;94889.75;;;-0.93;100.00
76374;BME280;65197;50.164;8.012;2022-12-08T03:25:18;94887.13;;;-0.84;100.00
76374;BME280;65197;50.164;8.012;2022-12-08T03:27:45;94877.13;;;-0.86;100.00
76374;BME280;65197;50.164;8.012;2022-12-08T03:30:10;94867.97;;;-0.87;100.00
76374;BME280;65197;50.164;8.012;2022-12-08T03:35:08;94853.94;;;-0.95;100.00
76374;BME280;65197;50.164;8.012;2022-12-08T03:37:36;94872.03;;;-0.78;100.00
76374;BME280;65197;50.164;8.012;2022-12-08T03:40:05;94865.31;;;-0.76;100.00
76374;BME280;65197;50.164;8.012;2022-12-08T03:42:31;94871.97;;;-0.75;100.00
76374;BME280;65197;50.164;8.012;2022-12-08T03:44:56;94865.34;;;-0.79;100.00
76374;BME280;65197;50.164;8.012;2022-12-08T03:47:21;94872.94;;;-0.82;100.00
76374;BME280;65197;50.164;8.012;2022-12-08T03:49:47;94862.78;;;-0.74;100.00
76374;BME280;65197;50.164;8.012;2022-12-08T03:52:12;94855.25;;;-0.73;100.00
76374;BME280;65197;50.164;8.012;2022-12-08T03:54:38;94861.16;;;-0.77;100.00
76374;BME280;65197;50.164;8.012;2022-12-08T03:57:06;94862.09;;;-0.84;100.00
76374;BME280;65197;50.164;8.012;2022-12-08T03:59:31;94855.38;;;-0.81;100.00
76374;BME280;65197;50.164;8.012;2022-12-08T04:01:57;94855.44;;;-0.85;100.00
76374;BME280;65197;50.164;8.012;2022-12-08T04:04:22;94855.47;;;-0.87;100.00
76374;BME280;65197;50.164;8.012;2022-12-08T04:06:48;94855.28;;;-0.76;100.00
76374;BME280;65197;50.164;8.012;2022-12-08T04:09:14;94850.34;;;-0.79;100.00
76374;BME280;65197;50.164;8.012;2022-12-08T04:11:40;94845.31;;;-0.79;100.00
76374;BME280;65197;50.164;8.012;2022-12-08T04:14:05;94844.50;;;-0.80;100.00
76374;BME280;65197;50.164;8.012;2022-12-08T04:16:30;94848.66;;;-0.77;100.00
76374;BME280;65197;50.164;8.012;2022-12-08T04:18:56;94842.78;;;-0.76;100.00
76374;BME280;65197;50.164;8.012;2022-12-08T04:21:21;94841.94;;;-0.75;100.00
76374;BME280;65197;50.164;8.012;2022-12-08T04:23:47;94840.25;;;-0.73;100.00
76374;BME280;65197;50.164;8.012;2022-12-08T04:26:13;94829.56;;;-0.83;100.00
76374;BME280;65197;50.164;8.012;2022-12-08T04:28:39;94836.94;;;-0.77;100.00
76374;BME280;65197;50.164;8.012;2022-12-08T04:31:04;94830.28;;;-0.76;100.00
76374;BME280;65197;50.164;8.012;2022-12-08T04:33:30;94829.41;;;-0.73;100.00
76374;BME280;65197;50.164;8.012;2022-12-08T04:35:55;94834.44;;;-0.77;100.00
76374;BME280;65197;50.164;8.012;2022-12-08T04:38:21;94828.63;;;-0.77;100.00
76374;BME280;65197;50.164;8.012;2022-12-08T04:40:46;94830.22;;;-0.73;100.00
76374;BME280;65197;50.164;8.012;2022-12-08T04:43:12;94841.00;;;-0.68;100.00
76374;BME280;65197;50.164;8.012;2022-12-08T04:45:41;94823.53;;;-0.74;99.96
76374;BME280;65197;50.164;8.012;2022-12-08T04:48:06;94834.34;;;-0.69;100.00
76374;BME280;65197;50.164;8.012;2022-12-08T04:50:32;94825.97;;;-0.69;100.00
76374;BME280;65197;50.164;8.012;2022-12-08T04:52:57;94830.97;;;-0.69;100.00
76374;BME280;65197;50.164;8.012;2022-12-08T04:55:23;94821.00;;;-0.71;100.00
76374;BME280;65197;50.164;8.012;2022-12-08T04:57:48;94813.53;;;-0.74;99.90
76374;BME280;65197;50.164;8.012;2022-12-08T05:00:14;94823.50;;;-0.71;100.00
76374;BME280;65197;50.164;8.012;2022-12-08T05:02:39;94823.50;;;-0.71;99.85
76374;BME280;65197;50.164;8.012;2022-12-08T05:05:05;94821.81;;;-0.70;100.00
76374;BME280;65197;50.164;8.012;2022-12-08T05:07:31;94828.50;;;-0.71;99.98
76374;BME280;65197;50.164;8.012;2022-12-08T05:09:56;94818.53;;;-0.74;100.00
76374;BME280;65197;50.164;8.012;2022-12-08T05:12:22;94814.44;;;-0.77;99.88
76374;BME280;65197;50.164;8.012;2022-12-08T05:14:47;94816.91;;;-0.75;100.00
76374;BME280;65197;50.164;8.012;2022-12-08T05:17:14;94801.88;;;-0.75;99.81
76374;BME280;65197;50.164;8.012;2022-12-08T05:19:40;94804.25;;;-0.67;99.77
76374;BME280;65197;50.164;8.012;2022-12-08T05:22:05;94812.47;;;-0.61;99.94
76374;BME280;65197;50.164;8.012;2022-12-08T05:24:30;94808.38;;;-0.65;99.58
76374;BME280;65197;50.164;8.012;2022-12-08T05:26:56;94810.09;;;-0.67;99.80
76374;BME280;65197;50.164;8.012;2022-12-08T05:29:21;94815.97;;;-0.68;99.84
76374;BME280;65197;50.164;8.012;2022-12-08T05:31:47;94796.88;;;-0.75;99.65
76374;BME280;65197;50.164;8.012;2022-12-08T05:34:12;94806.84;;;-0.72;100.00
76374;BME280;65197;50.164;8.012;2022-12-08T05:36:37;94794.44;;;-0.78;100.00
76374;BME280;65197;50.164;8.012;2022-12-08T05:39:03;94802.63;;;-0.68;100.00
76374;BME280;65197;50.164;8.012;2022-12-08T05:41:28;94806.94;;;-0.78;99.93
76374;BME280;65197;50.164;8.012;2022-12-08T05:43:54;94800.94;;;-0.69;100.00
76374;BME280;65197;50.164;8.012;2022-12-08T05:46:19;94804.31;;;-0.70;100.00
76374;BME280;65197;50.164;8.012;2022-12-08T05:48:44;94797.66;;;-0.71;100.00
76374;BME280;65197;50.164;8.012;2022-12-08T05:51:18;94800.94;;;-0.69;100.00
76374;BME280;65197;50.164;8.012;2022-12-08T05:53:45;94795.97;;;-0.71;100.00
76374;BME280;65197;50.164;8.012;2022-12-08T05:56:10;94796.69;;;-0.63;99.96
76374;BME280;65197;50.164;8.012;2022-12-08T05:58:35;94798.38;;;-0.65;100.00
76374;BME280;65197;50.164;8.012;2022-12-08T06:01:01;94798.38;;;-0.65;100.00
76374;BME280;65197;50.164;8.012;2022-12-08T06:03:27;94778.59;;;-0.80;100.00
76374;BME280;65197;50.164;8.012;2022-12-08T06:05:53;94795.13;;;-0.70;100.00
76374;BME280;65197;50.164;8.012;2022-12-08T06:08:19;94783.41;;;-0.68;99.96
76374;BME280;65197;50.164;8.012;2022-12-08T06:10:44;94789.91;;;-0.58;100.00
76374;BME280;65197;50.164;8.012;2022-12-08T06:13:10;94792.50;;;-0.62;99.70
76374;BME280;65197;50.164;8.012;2022-12-08T06:15:36;94770.97;;;-0.72;99.47
76374;BME280;65197;50.164;8.012;2022-12-08T06:18:02;94795.03;;;-0.64;100.00
76374;BME280;65197;50.164;8.012;2022-12-08T06:20:28;94785.84;;;-0.65;99.79
76374;BME280;65197;50.164;8.012;2022-12-08T06:22:57;94796.72;;;-0.66;99.96
76374;BME280;65197;50.164;8.012;2022-12-08T06:25:23;94796.69;;;-0.63;100.00
76374;BME280;65197;50.164;8.012;2022-12-08T06:27:48;94788.25;;;-0.59;99.94
76374;BME280;65197;50.164;8.012;2022-12-08T06:30:14;94802.47;;;-0.59;99.82
76374;BME280;65197;50.164;8.012;2022-12-08T06:32:40;94796.63;;;-0.60;99.82
76374;BME280;65197;50.164;8.012;2022-12-08T06:35:05;94798.31;;;-0.62;100.00
76374;BME280;65197;50.164;8.012;2022-12-08T06:37:31;94790.03;;;-0.64;100.00
76374;BME280;65197;50.164;8.012;2022-12-08T06:39:56;94796.56;;;-0.57;99.78
76374;BME280;65197;50.164;8.012;2022-12-08T06:42:22;94794.97;;;-0.61;99.69
76374;BME280;65197;50.164;8.012;2022-12-08T06:45:07;94794.25;;;-0.67;100.00
76374;BME280;65197;50.164;8.012;2022-12-08T06:47:32;94796.69;;;-0.63;100.00
76374;BME280;65197;50.164;8.012;2022-12-08T06:49:58;94797.47;;;-0.59;100.00
76374;BME280;65197;50.164;8.012;2022-12-08T06:52:23;94800.03;;;-0.64;99.91
76374;BME280;65197;50.164;8.012;2022-12-08T06:54:48;94791.66;;;-0.63;100.00
76374;BME280;65197;50.164;8.012;2022-12-08T06:57:14;94799.16;;;-0.61;100.00
76374;BME280;65197;50.164;8.012;2022-12-08T06:59:39;94802.59;;;-0.67;100.00
76374;BME280;65197;50.164;8.012;2022-12-08T07:02:05;94796.75;;;-0.67;99.91
76374;BME280;65197;50.164;8.012;2022-12-08T07:04:30;94796.00;;;-0.72;100.00
76374;BME280;65197;50.164;8.012;2022-12-08T07:06:56;94790.06;;;-0.67;100.00
76374;BME280;65197;50.164;8.012;2022-12-08T07:09:21;94795.13;;;-0.70;99.78
76374;BME280;65197;50.164;8.012;2022-12-08T07:11:47;94788.47;;;-0.71;99.94
76374;BME280;65197;50.164;8.012;2022-12-08T07:14:12;94789.28;;;-0.70;100.00
76374;BME280;65197;50.164;8.012;2022-12-08T07:16:37;94786.84;;;-0.75;99.92
76374;BME280;65197;50.164;8.012;2022-12-08T07:19:04;94799.22;;;-0.66;100.00
76374;BME280;65197;50.164;8.012;2022-12-08T07:21:29;94796.72;;;-0.64;99.66
76374;BME280;65197;50.164;8.012;2022-12-08T07:23:55;94790.94;;;-0.68;99.63
76374;BME280;65197;50.164;8.012;2022-12-08T07:26:20;94783.44;;;-0.71;100.00
76374;BME280;65197;50.164;8.012;2022-12-08T07:28:46;94780.16;;;-0.74;99.73
76374;BME280;65197;50.164;8.012;2022-12-08T07:31:20;94788.47;;;-0.71;100.00
76374;BME280;65197;50.164;8.012;2022-12-08T07:33:46;94786.81;;;-0.72;100.00
76374;BME280;65197;50.164;8.012;2022-12-08T07:36:12;94792.53;;;-0.65;100.00
76374;BME280;65197;50.164;8.012;2022-12-08T07:38:37;94785.91;;;-0.68;99.82
76374;BME280;65197;50.164;8.012;2022-12-08T07:41:03;94791.72;;;-0.64;99.76
76374;BME280;65197;50.164;8.012;2022-12-08T07:43:28;94788.34;;;-0.65;99.25
76374;BME280;65197;50.164;8.012;2022-12-08T07:45:54;94785.84;;;-0.65;99.56
76374;BME280;65197;50.164;8.012;2022-12-08T07:48:19;94792.47;;;-0.61;99.65
76374;BME280;65197;50.164;8.012;2022-12-08T07:50:45;94788.34;;;-0.63;99.62
76374;BME280;65197;50.164;8.012;2022-12-08T07:53:11;94781.69;;;-0.66;100.00
76374;BME280;65197;50.164;8.012;2022-12-08T07:55:43;94779.19;;;-0.64;99.73
76374;BME280;65197;50.164;8.012;2022-12-08T07:58:09;94782.63;;;-0.71;100.00
76374;BME280;65197;50.164;8.012;2022-12-08T08:00:35;94789.94;;;-0.61;100.00
76374;BME280;65197;50.164;8.012;2022-12-08T08:03:00;94786.63;;;-0.60;99.93
76374;BME280;65197;50.164;8.012;2022-12-08T08:05:27;94760.19;;;-0.76;99.74
76374;BME280;65197;50.164;8.012;2022-12-08T08:07:52;94783.38;;;-0.66;100.00
76374;BME280;65197;50.164;8.012;2022-12-08T08:10:17;94789.16;;;-0.63;99.82
76374;BME280;65197;50.164;8.012;2022-12-08T08:12:43;94796.63;;;-0.60;99.95
76374;BME280;65197;50.164;8.012;2022-12-08T08:15:09;94789.09;;;-0.58;99.69
76374;BME280;65197;50.164;8.012;2022-12-08T08:17:37;94787.44;;;-0.61;99.75
76374;BME280;65197;50.164;8.012;2022-12-08T08:20:05;94790.72;;;-0.57;99.96
76374;BME280;65197;50.164;8.012;2022-12-08T08:22:31;94791.63;;;-0.60;99.98
76374;BME280;65197;50.164;8.012;2022-12-08T08:24:57;94785.75;;;-0.60;99.39
76374;BME280;65197;50.164;8.012;2022-12-08T08:27:23;94788.25;;;-0.59;100.00
76374;BME280;65197;50.164;8.012;2022-12-08T08:29:49;94793.97;;;-0.52;100.00
76374;BME280;65197;50.164;8.012;2022-12-08T08:32:15;94793.97;;;-0.52;100.00
76374;BME280;65197;50.164;8.012;2022-12-08T08:34:40;94788.97;;;-0.52;99.93
76374;BME280;65197;50.164;8.012;2022-12-08T08:37:05;94786.50;;;-0.54;99.76
76374;BME280;65197;50.164;8.012;2022-12-08T08:39:31;94786.53;;;-0.55;100.00
76374;BME280;65197;50.164;8.012;2022-12-08T08:41:56;94794.81;;;-0.52;100.00
76374;BME280;65197;50.164;8.012;2022-12-08T08:44:22;94798.16;;;-0.53;99.73
76374;BME280;65197;50.164;8.012;2022-12-08T08:46:48;94792.28;;;-0.50;99.47
76374;BME280;65197;50.164;8.012;2022-12-08T08:49:13;94798.94;;;-0.49;99.68
76374;BME280;65197;50.164;8.012;2022-12-08T08:51:39;94798.13;;;-0.49;99.89
76374;BME280;65197;50.164;8.012;2022-12-08T08:54:04;94784.78;;;-0.52;100.00
76374;BME280;65197;50.164;8.012;2022-12-08T08:56:29;94799.56;;;-0.36;99.66
76374;BME280;65197;50.164;8.012;2022-12-08T08:58:55;94776.38;;;-0.47;99.79
76374;BME280;65197;50.164;8.012;2022-12-08T09:01:26;94798.88;;;-0.44;99.73
76374;BME280;65197;50.164;8.012;2022-12-08T09:03:51;94788.13;;;-0.51;99.18
76374;BME280;65197;50.164;8.012;2022-12-08T09:06:18;94790.78;;;-0.60;99.29
76374;BME280;65197;50.164;8.012;2022-12-08T09:08:44;94801.53;;;-0.54;99.87
76374;BME280;65197;50.164;8.012;2022-12-08T09:11:10;94791.56;;;-0.57;99.45
76374;BME280;65197;50.164;8.012;2022-12-08T09:13:36;94799.72;;;-0.47;99.13
76374;BME280;65197;50.164;8.012;2022-12-08T09:16:06;94785.22;;;0.14;100.00
76374;BME280;65197;50.164;8.012;2022-12-08T09:18:32;94781.44;;;0.36;97.67
76374;BME280;65197;50.164;8.012;2022-12-08T09:21:09;94783.88;;;0.78;96.00
76374;BME280;65197;50.164;8.012;2022-12-08T09:23:38;94791.84;;;0.18;94.94
76374;BME280;65197;50.164;8.012;2022-12-08T09:26:04;94780.66;;;-0.08;96.25
76374;BME280;65197;50.164;8.012;2022-12-08T09:28:30;94784.84;;;-0.10;96.96
76374;BME280;65197;50.164;8.012;2022-12-08T09:30:55;94785.88;;;-0.20;97.02
76374;BME280;65197;50.164;8.012;2022-12-08T09:33:21;94789.31;;;-0.24;96.82
76374;BME280;65197;50.164;8.012;2022-12-08T09:35:46;94790.28;;;-0.33;97.64
76374;BME280;65197;50.164;8.012;2022-12-08T09:38:12;94787.78;;;-0.31;97.27
76374;BME280;65197;50.164;8.012;2022-12-08T09:40:45;94797.72;;;-0.28;97.56
76374;BME280;65197;50.164;8.012;2022-12-08T09:46:08;94787.81;;;-0.34;97.48
76374;BME280;65197;50.164;8.012;2022-12-08T09:48:40;94796.97;;;-0.32;97.37
76374;BME280;65197;50.164;8.012;2022-12-08T09:51:07;94784.47;;;-0.33;97.08
76374;BME280;65197;50.164;8.012;2022-12-08T09:53:36;94779.34;;;-0.27;97.59
76374;BME280;65197;50.164;8.012;2022-12-08T09:56:24;94776.00;;;-0.26;97.66
76374;BME280;65197;50.164;8.012;2022-12-08T09:59:01;94776.66;;;-0.16;97.03
76374;BME280;65197;50.164;8.012;2022-12-08T10:01:31;94774.81;;;-0.08;96.30
76374;BME280;65197;50.164;8.012;2022-12-08T10:03:57;94773.88;;;-0.03;96.50
76374;BME280;65197;50.164;8.012;2022-12-08T10:06:46;94778.84;;;0.01;96.28
76374;BME280;65197;50.164;8.012;2022-12-08T10:14:33;94766.41;;;-0.06;95.92
76374;BME280;65197;50.164;8.012;2022-12-08T10:17:08;94760.75;;;-0.14;96.13
76374;BME280;65197;50.164;8.012;2022-12-08T10:19:36;94764.06;;;-0.15;96.33
76374;BME280;65197;50.164;8.012;2022-12-08T10:22:22;94758.19;;;-0.12;96.94
76374;BME280;65197;50.164;8.012;2022-12-08T10:27:19;94761.78;;;-0.26;96.43
76374;BME280;65197;50.164;8.012;2022-12-08T10:29:45;94758.31;;;-0.18;97.21
76374;BME280;65197;50.164;8.012;2022-12-08T10:32:21;94737.56;;;-0.25;97.18
76374;BME280;65197;50.164;8.012;2022-12-08T10:35:20;94758.25;;;-0.15;96.82
76374;BME280;65197;50.164;8.012;2022-12-08T10:37:57;94745.03;;;-0.23;97.42
76374;BME280;65197;50.164;8.012;2022-12-08T10:40:24;94747.34;;;-0.13;97.54
76374;BME280;65197;50.164;8.012;2022-12-08T10:42:54;94742.25;;;-0.10;97.22
76374;BME280;65197;50.164;8.012;2022-12-08T10:48:04;94739.69;;;-0.07;96.90
76374;BME280;65197;50.164;8.012;2022-12-08T10:50:33;94722.03;;;-0.01;96.62
76374;BME280;65197;50.164;8.012;2022-12-08T10:55:27;94733.16;;;0.28;95.76
76374;BME280;65197;50.164;8.012;2022-12-08T10:57:53;94728.72;;;0.39;96.28
76374;BME280;65197;50.164;8.012;2022-12-08T11:00:23;94723.41;;;0.53;96.06
76374;BME280;65197;50.164;8.012;2022-12-08T11:03:01;94724.06;;;0.60;95.15
76374;BME280;65197;50.164;8.012;2022-12-08T11:05:32;94712.78;;;0.79;94.20
76374;BME280;65197;50.164;8.012;2022-12-08T11:07:58;94725.22;;;1.18;94.07
76374;BME280;65197;50.164;8.012;2022-12-08T11:10:36;94727.19;;;1.07;93.91
76374;BME280;65197;50.164;8.012;2022-12-08T11:13:21;94718.19;;;0.96;93.79
76374;BME280;65197;50.164;8.012;2022-12-08T11:15:47;94716.72;;;0.89;94.14
76374;BME280;65197;50.164;8.012;2022-12-08T11:18:29;94682.28;;;0.60;94.89
76374;BME280;65197;50.164;8.012;2022-12-08T11:21:10;94704.09;;;0.57;94.24
76374;BME280;65197;50.164;8.012;2022-12-08T11:23:37;94701.59;;;0.55;95.47
76374;BME280;65197;50.164;8.012;2022-12-08T11:26:12;94714.41;;;0.44;94.38
76374;BME280;65197;50.164;8.012;2022-12-08T11:28:41;94694.47;;;0.38;95.46
76374;BME280;65197;50.164;8.012;2022-12-08T11:31:34;94690.53;;;1.32;96.79
76374;BME280;65197;50.164;8.012;2022-12-08T11:34:03;94688.03;;;1.32;94.14
76374;BME280;65197;50.164;8.012;2022-12-08T11:36:32;94685.41;;;1.68;97.22
76374;BME280;65197;50.164;8.012;2022-12-08T11:39:02;94684.03;;;1.87;92.61
76374;BME280;65197;50.164;8.012;2022-12-08T11:41:46;94696.31;;;2.54;89.28
76374;BME280;65197;50.164;8.012;2022-12-08T11:44:46;94679.34;;;2.33;90.79
76374;BME280;65197;50.164;8.012;2022-12-08T11:47:14;94686.50;;;2.73;93.07
76374;BME280;65197;50.164;8.012;2022-12-08T11:49:42;94688.25;;;2.71;88.63
76374;BME280;65197;50.164;8.012;2022-12-08T11:54:54;94659.81;;;3.44;89.01
76374;BME280;65197;50.164;8.012;2022-12-08T11:57:25;94659.97;;;2.89;83.40
76374;BME280;65197;50.164;8.012;2022-12-08T11:59:58;94683.25;;;2.69;84.19
76374;BME280;65197;50.164;8.012;2022-12-08T12:02:28;94675.09;;;2.35;85.78
76374;BME280;65197;50.164;8.012;2022-12-08T12:07:45;94659.81;;;1.53;86.55
76374;BME280;65197;50.164;8.012;2022-12-08T12:19:08;94660.44;;;0.64;91.67
76374;BME280;65197;50.164;8.012;2022-12-08T12:21:32;94677.06;;;0.68;92.65
76374;BME280;65197;50.164;8.012;2022-12-08T12:24:03;94648.25;;;0.48;92.21
76374;BME280;65197;50.164;8.012;2022-12-08T12:26:36;94653.16;;;0.53;92.02
76374;BME280;65197;50.164;8.012;2022-12-08T12:31:35;94662.94;;;0.64;92.26
76374;BME280;65197;50.164;8.012;2022-12-08T12:34:07;94662.09;;;0.65;92.23
76374;BME280;65197;50.164;8.012;2022-12-08T12:37:09;94653.22;;;0.52;91.94
76374;BME280;65197;50.164;8.012;2022-12-08T12:42:47;94658.94;;;0.57;93.65
76374;BME280;65197;50.164;8.012;2022-12-08T12:47:51;94632.66;;;0.37;93.21
76374;BME280;65197;50.164;8.012;2022-12-08T12:53:04;94640.94;;;0.39;92.90
76374;BME280;65197;50.164;8.012;2022-12-08T12:55:57;94617.16;;;0.56;92.88
76374;BME280;65197;50.164;8.012;2022-12-08T13:03:46;94632.75;;;0.33;92.36
76374;BME280;65197;50.164;8.012;2022-12-08T13:06:20;94619.53;;;0.26;92.61
76374;BME280;65197;50.164;8.012;2022-12-08T13:08:52;94650.97;;;0.39;93.21
76374;BME280;65197;50.164;8.012;2022-12-08T13:11:20;94625.59;;;0.16;93.14
76374;BME280;65197;50.164;8.012;2022-12-08T13:13:57;94627.19;;;0.18;93.62
76374;BME280;65197;50.164;8.012;2022-12-08T13:16:25;94617.44;;;0.08;93.61
76374;BME280;65197;50.164;8.012;2022-12-08T13:18:56;94630.78;;;0.08;93.38
76374;BME280;65197;50.164;8.012;2022-12-08T13:21:23;94626.59;;;0.09;92.85
76374;BME280;65197;50.164;8.012;2022-12-08T13:29:35;94612.50;;;0.03;93.72
76374;BME280;65197;50.164;8.012;2022-12-08T13:34:55;94612.47;;;0.05;94.08
76374;BME280;65197;50.164;8.012;2022-12-08T13:37:31;94638.91;;;0.18;93.13
76374;BME280;65197;50.164;8.012;2022-12-08T13:40:04;94609.09;;;0.07;93.35
76374;BME280;65197;50.164;8.012;2022-12-08T13:45:27;94603.47;;;-0.03;94.33
76374;BME280;65197;50.164;8.012;2022-12-08T13:48:09;94628.78;;;0.22;94.06
76374;BME280;65197;50.164;8.012;2022-12-08T13:50:42;94626.25;;;0.24;93.62
76374;BME280;65197;50.164;8.012;2022-12-08T13:55:54;94604.00;;;0.10;93.79
76374;BME280;65197;50.164;8.012;2022-12-08T13:58:32;94623.81;;;0.21;94.01
76374;BME280;65197;50.164;8.012;2022-12-08T14:03:33;94623.03;;;0.19;93.36
76374;BME280;65197;50.164;8.012;2022-12-08T14:06:02;94626.53;;;0.12;93.10
76374;BME280;65197;50.164;8.012;2022-12-08T14:08:31;94621.56;;;0.09;93.12
76374;BME280;65197;50.164;8.012;2022-12-08T14:11:03;94632.38;;;0.12;93.00
76374;BME280;65197;50.164;8.012;2022-12-08T14:13:31;94639.97;;;0.08;93.54
76374;BME280;65197;50.164;8.012;2022-12-08T14:15:58;94635.13;;;0.02;92.41
76374;BME280;65197;50.164;8.012;2022-12-08T14:18:27;94625.22;;;-0.05;93.08
76374;BME280;65197;50.164;8.012;2022-12-08T14:21:05;94628.56;;;-0.06;92.52
76374;BME280;65197;50.164;8.012;2022-12-08T14:23:34;94617.16;;;-0.19;92.97
76374;BME280;65197;50.164;8.012;2022-12-08T14:26:02;94630.44;;;-0.14;93.40
76374;BME280;65197;50.164;8.012;2022-12-08T14:28:30;94620.53;;;-0.20;94.34
76374;BME280;65197;50.164;8.012;2022-12-08T14:30:58;94637.09;;;-0.13;93.98
76374;BME280;65197;50.164;8.012;2022-12-08T14:33:24;94639.59;;;-0.13;94.63
76374;BME280;65197;50.164;8.012;2022-12-08T14:35:53;94627.19;;;-0.19;94.29
76374;BME280;65197;50.164;8.012;2022-12-08T14:38:21;94638.88;;;-0.18;94.32